TED STEVENS ANCHORAGE INTL

PANC (ANC)
Anchorage, Alaska
Towered

Vatsim Metar:
PANC 190853Z 04013G22KT 10SM CLR 14/M01 A2993 RMK AO2 SLP134 T01441006 402060117 56003

No ATC Online

Traffic

Inbound:
Ident
Type
Name
ETA
Phase
FDX2888
H/B77L/L
Troy Winter YPPH
10:08 Z
Cruse

Outbound:
Ident
Type
Name
Destination
Phase